Time;durP1;ratioP1;P1;durP2;ratioP2;P2;SDS_P1;SDS_P2;PMS_P1;PMS_P2;Temp;Humidity;BMP_temperature;BMP_pressure;BME280_temperature;BME280_humidity;BME280_pressure;Samples;Min_cycle;Max_cycle;Signal;HPM_P1;HPM_P2
2022/10/28 00:01:06;;;;;;;41.42;23.73;;;;;;;11.55;76.89;99597.78;5065083;28;20025;-71
2022/10/28 00:03:32;;;;;;;39.88;23.02;;;;;;;11.56;77.59;99610.41;5046370;28;20032;-72
2022/10/28 00:06:04;;;;;;;37.25;22.30;;;;;;;11.54;77.66;99605.22;5066955;28;20060;-72
2022/10/28 00:08:31;;;;;;;34.00;21.83;;;;;;;11.53;77.17;99602.72;5071194;28;20032;-73
2022/10/28 00:11:05;;;;;;;33.38;20.80;;;;;;;11.55;77.17;99595.03;5070706;28;20078;-72
2022/10/28 00:13:30;;;;;;;33.40;20.48;;;;;;;11.55;77.56;99595.03;5070211;28;20029;-73
2022/10/28 00:16:04;;;;;;;36.80;21.88;;;;;;;11.54;77.86;99594.22;5070754;28;20593;-72
2022/10/28 00:18:29;;;;;;;35.25;21.83;;;;;;;11.54;77.83;99588.72;5070360;28;20078;-72
2022/10/28 00:21:00;;;;;;;38.80;23.38;;;;;;;11.53;77.25;99589.81;5070703;28;20033;-72
2022/10/28 00:23:25;;;;;;;36.03;22.45;;;;;;;11.55;77.43;99576.63;5070261;28;20032;-73
2022/10/28 00:25:50;;;;;;;39.75;24.88;;;;;;;11.55;77.60;99579.38;5052266;28;20046;-73
2022/10/28 00:28:16;;;;;;;38.95;25.15;;;;;;;11.54;78.12;99575.00;5073612;28;20052;-72
2022/10/28 00:30:41;;;;;;;39.15;23.45;;;;;;;11.55;78.00;99579.38;5090906;28;20024;-72
2022/10/28 00:33:06;;;;;;;39.17;22.65;;;;;;;11.55;77.63;99573.91;5090671;28;20071;-72
2022/10/28 00:35:32;;;;;;;37.78;21.77;;;;;;;11.55;77.89;99576.63;5090015;28;20027;-72
2022/10/28 00:37:58;;;;;;;35.92;21.27;;;;;;;11.52;77.82;99579.09;5090736;28;20086;-72
2022/10/28 00:40:24;;;;;;;36.10;22.05;;;;;;;11.50;77.69;99568.41;5090902;28;20016;-72
2022/10/28 00:42:50;;;;;;;36.28;21.10;;;;;;;11.49;77.58;99568.66;5072208;28;20054;-73
2022/10/28 00:45:15;;;;;;;32.53;20.58;;;;;;;11.50;77.77;99576.63;5089882;28;20035;-72
2022/10/28 00:47:57;;;;;;;32.83;20.15;;;;;;;11.52;77.82;99565.34;5090482;28;20020;-73
2022/10/28 00:50:25;;;;;;;35.60;20.33;;;;;;;11.53;77.80;99559.59;5068864;28;20032;-72
2022/10/28 00:53:03;;;;;;;38.03;20.83;;;;;;;11.51;78.06;99560.97;5070079;28;20029;-73
2022/10/28 00:55:30;;;;;;;33.55;21.00;;;;;;;11.51;77.90;99556.31;5086825;28;20093;-73
2022/10/28 00:57:58;;;;;;;35.33;20.55;;;;;;;11.50;77.47;99560.16;5072979;28;20050;-72
2022/10/28 01:00:25;;;;;;;34.97;21.52;;;;;;;11.48;78.18;99559.59;5090801;28;20758;-72
2022/10/28 01:02:50;;;;;;;35.25;20.48;;;;;;;11.47;77.99;99557.97;5090271;28;20024;-73
2022/10/28 01:05:23;;;;;;;36.17;20.40;;;;;;;11.46;77.59;99548.06;5090041;28;20363;-72
2022/10/28 01:07:56;;;;;;;34.38;20.23;;;;;;;11.43;78.15;99549.44;5090528;28;20024;-73
2022/10/28 01:10:28;;;;;;;33.17;20.83;;;;;;;11.42;77.43;99553.28;5091151;28;20028;-74
2022/10/28 01:13:00;;;;;;;32.60;20.67;;;;;;;11.42;77.80;99557.94;5070402;28;20099;-73
2022/10/28 01:15:50;;;;;;;35.92;20.17;;;;;;;11.40;77.91;99544.50;5049404;28;20123;-72
2022/10/28 01:18:26;;;;;;;;;;;;;;;11.40;78.01;99546.41;5065086;28;20031;-73
2022/10/28 01:21:19;;;;;;;33.25;19.65;;;;;;;11.37;78.09;99549.72;5081619;28;19963;-73
2022/10/28 01:23:50;;;;;;;34.65;20.00;;;;;;;11.34;77.98;99556.59;5089413;28;20024;-73
2022/10/28 01:26:40;;;;;;;30.88;19.35;;;;;;;11.31;77.94;99557.13;5071423;28;20524;-73
2022/10/28 01:29:24;;;;;;;;;;;;;;;11.32;77.85;99558.78;5075692;28;20490;-73
2022/10/28 01:31:56;;;;;;;36.67;22.35;;;;;;;11.29;78.31;99553.84;5050958;28;20252;-73
2022/10/28 01:34:52;;;;;;;37.15;21.35;;;;;;;11.24;77.79;99545.59;5068196;28;20052;-72
2022/10/28 01:37:32;;;;;;;36.05;21.15;;;;;;;11.23;78.35;99542.00;5069395;28;20052;-72
2022/10/28 01:40:11;;;;;;;35.05;21.13;;;;;;;11.21;77.93;99537.91;5069750;28;20089;-71
2022/10/28 01:42:55;;;;;;;39.28;22.35;;;;;;;11.19;78.14;99535.44;5069401;28;20056;-72
2022/10/28 01:45:27;;;;;;;39.50;21.83;;;;;;;11.20;78.90;99528.84;5069267;28;20060;-72
2022/10/28 01:48:16;;;;;;;39.15;21.88;;;;;;;11.20;78.64;99531.59;5068990;28;20438;-73
2022/10/28 01:50:59;;;;;;;39.92;20.85;;;;;;;11.22;78.99;99532.13;5069490;28;20109;-72
2022/10/28 01:53:30;;;;;;;39.30;21.85;;;;;;;11.23;78.41;99531.03;5068661;28;20052;-72
2022/10/28 01:55:59;;;;;;;35.95;21.30;;;;;;;11.22;78.59;99531.31;5069464;28;20032;-72
2022/10/28 01:58:29;;;;;;;34.13;21.33;;;;;;;11.22;78.71;99534.88;5068982;28;20016;-72
2022/10/28 02:00:56;;;;;;;33.40;20.20;;;;;;;11.24;78.27;99532.66;5065266;28;20017;-72
2022/10/28 02:03:22;;;;;;;31.75;19.35;;;;;;;11.23;78.47;99528.28;5085411;28;20048;-73
2022/10/28 02:05:51;;;;;;;31.67;19.83;;;;;;;11.24;78.43;99523.63;5089561;28;20120;-73
2022/10/28 02:08:17;;;;;;;31.55;18.90;;;;;;;11.25;79.16;99534.31;5071722;28;20115;-72
2022/10/28 02:10:52;;;;;;;32.40;20.58;;;;;;;11.25;78.88;99534.31;5089544;28;20815;-73
2022/10/28 02:13:20;;;;;;;34.78;20.95;;;;;;;11.26;79.38;99532.41;5088752;28;20043;-73
2022/10/28 02:15:48;;;;;;;37.50;23.23;;;;;;;11.26;79.31;99529.66;5089469;28;20035;-73
2022/10/28 02:18:25;;;;;;;37.40;22.52;;;;;;;11.25;79.54;99528.03;5089491;28;20372;-73
2022/10/28 02:20:52;;;;;;;34.80;22.13;;;;;;;11.22;79.00;99518.38;5089369;28;20493;-73
2022/10/28 02:23:43;;;;;;;33.15;20.52;;;;;;;11.21;79.18;99515.94;5070516;28;20070;-73
2022/10/28 02:26:20;;;;;;;36.97;18.77;;;;;;;11.22;79.15;99507.41;5084982;28;20081;-72
2022/10/28 02:28:52;;;;;;;33.10;19.77;;;;;;;11.22;78.96;99515.66;5076870;28;20038;-73
2022/10/28 02:31:21;;;;;;;28.80;18.80;;;;;;;11.19;78.94;99507.97;5068745;28;20132;-73
2022/10/28 02:33:52;;;;;;;30.42;18.70;;;;;;;11.16;78.74;99511.28;5068489;28;20123;-73
2022/10/28 02:36:21;;;;;;;26.33;17.83;;;;;;;11.15;79.48;99504.13;5069166;28;20067;-73
2022/10/28 02:38:51;;;;;;;29.38;18.15;;;;;;;11.13;79.25;99506.34;5069368;28;20041;-73
2022/10/28 02:41:22;;;;;;;27.20;17.23;;;;;;;11.11;79.52;99509.34;5069133;28;20454;-72
2022/10/28 02:43:53;;;;;;;28.42;18.40;;;;;;;11.09;79.26;99511.53;5072477;28;20036;-72
2022/10/28 02:46:20;;;;;;;25.95;17.13;;;;;;;11.07;78.86;99512.91;5054834;28;20474;-73
2022/10/28 02:48:51;;;;;;;31.00;17.10;;;;;;;11.07;79.00;99512.91;5072334;28;20031;-72
2022/10/28 02:51:21;;;;;;;25.40;16.10;;;;;;;11.06;79.54;99508.53;5072856;28;20074;-73
2022/10/28 02:54:16;;;;;;;24.77;16.58;;;;;;;11.06;79.16;99503.03;5072967;28;20032;-72
2022/10/28 02:57:04;;;;;;;23.92;16.08;;;;;;;11.06;79.43;99501.09;5073161;28;20068;-72
2022/10/28 02:59:29;;;;;;;29.10;17.55;;;;;;;11.08;79.45;99489.84;5072917;28;20132;-73
2022/10/28 03:01:55;;;;;;;28.77;17.08;;;;;;;11.06;79.20;99484.63;5073441;28;20462;-73
2022/10/28 03:04:21;;;;;;;24.65;16.17;;;;;;;11.04;79.32;99492.31;5055005;28;20379;-73
2022/10/28 03:06:46;;;;;;;27.35;16.90;;;;;;;11.02;79.15;99495.34;5072961;28;20024;-72
2022/10/28 03:09:11;;;;;;;27.83;17.83;;;;;;;10.99;79.80;99489.59;5072770;28;20020;-72
2022/10/28 03:11:37;;;;;;;26.60;16.58;;;;;;;10.99;79.26;99484.09;5072992;28;20020;-73
2022/10/28 03:14:02;;;;;;;27.00;17.67;;;;;;;10.98;79.97;99483.25;5072324;28;20052;-72
2022/10/28 03:16:28;;;;;;;30.70;18.42;;;;;;;10.96;79.63;99490.13;5072989;28;20101;-73
2022/10/28 03:18:53;;;;;;;33.15;19.58;;;;;;;10.94;79.49;99493.13;5071931;28;20035;-73
2022/10/28 03:21:19;;;;;;;27.63;18.83;;;;;;;10.93;79.78;99490.66;5072482;28;20024;-73
2022/10/28 03:23:44;;;;;;;28.55;17.52;;;;;;;10.91;80.01;99479.13;5071462;28;20478;-73
2022/10/28 03:26:10;;;;;;;27.02;16.48;;;;;;;10.90;79.13;99482.97;5072305;28;20028;-73
2022/10/28 03:28:35;;;;;;;25.92;16.38;;;;;;;10.89;80.75;99481.34;5078777;28;20043;-73
2022/10/28 03:31:01;;;;;;;23.90;16.02;;;;;;;10.86;80.08;99485.44;5092683;28;20386;-73
2022/10/28 03:33:26;;;;;;;24.35;15.32;;;;;;;10.82;79.58;99478.84;5084118;28;20052;-73
2022/10/28 03:35:51;;;;;;;23.92;15.40;;;;;;;10.81;79.83;99480.78;5072716;28;20078;-73
2022/10/28 03:38:17;;;;;;;26.13;18.15;;;;;;;10.80;80.11;99479.13;5073517;28;20051;-73
2022/10/28 03:40:42;;;;;;;28.55;18.67;;;;;;;10.80;79.83;99489.28;5075677;28;20028;-73
2022/10/28 03:43:07;;;;;;;34.97;22.50;;;;;;;10.79;80.51;99484.91;5081107;28;20033;-72
2022/10/28 03:45:33;;;;;;;29.48;19.98;;;;;;;10.79;79.94;99484.91;5072272;28;20041;-73
2022/10/28 03:47:58;;;;;;;27.42;19.58;;;;;;;10.78;81.04;99491.47;5088010;28;20040;-73
2022/10/28 03:50:24;;;;;;;23.45;16.58;;;;;;;10.79;80.78;99484.91;5071951;28;20040;-73
2022/10/28 03:52:49;;;;;;;25.20;17.73;;;;;;;10.78;80.47;99486.00;5053201;28;20056;-72
2022/10/28 03:55:15;;;;;;;28.92;16.60;;;;;;;10.80;80.92;99490.09;5076462;28;20080;-73
2022/10/28 03:57:41;;;;;;;27.33;16.67;;;;;;;10.80;80.91;99481.88;5092259;28;20025;-73
2022/10/28 04:00:06;;;;;;;24.88;15.65;;;;;;;10.81;80.80;99479.94;5092256;28;20027;-73
2022/10/28 04:02:32;;;;;;;23.38;14.82;;;;;;;10.84;80.64;99479.38;5080798;28;20077;-74
2022/10/28 04:04:57;;;;;;;19.83;13.10;;;;;;;10.84;81.16;99477.47;5071795;28;20439;-70
2022/10/28 04:07:23;;;;;;;24.98;14.75;;;;;;;10.85;80.96;99472.81;5084801;28;20051;-71
2022/10/28 04:09:50;;;;;;;21.90;14.75;;;;;;;10.85;81.12;99472.81;5084337;28;20029;-70
2022/10/28 04:12:16;;;;;;;19.65;13.30;;;;;;;10.82;80.83;99474.19;5072535;28;20059;-71
2022/10/28 04:14:41;;;;;;;21.98;13.68;;;;;;;10.82;80.97;99459.63;5092167;28;20023;-70
2022/10/28 04:17:07;;;;;;;22.88;16.88;;;;;;;10.82;81.20;99470.59;5092279;28;20028;-71
2022/10/28 04:19:32;;;;;;;23.10;15.52;;;;;;;10.84;81.03;99474.75;5091888;28;20031;-72
2022/10/28 04:21:57;;;;;;;20.13;14.60;;;;;;;10.83;81.05;99473.09;5078020;28;20447;-72
2022/10/28 04:24:23;;;;;;;20.13;13.68;;;;;;;10.81;80.93;99472.53;5071455;28;20445;-73
2022/10/28 04:26:48;;;;;;;20.10;13.68;;;;;;;10.80;80.92;99479.13;5071980;28;20020;-71
2022/10/28 04:29:13;;;;;;;22.40;14.63;;;;;;;10.80;81.15;99483.81;5081664;28;20031;-72
2022/10/28 04:31:39;;;;;;;20.35;13.23;;;;;;;10.82;81.46;99495.31;5091434;28;20028;-73
2022/10/28 04:34:04;;;;;;;19.67;13.05;;;;;;;10.82;81.00;99479.69;5091355;28;20081;-72
2022/10/28 04:36:29;;;;;;;21.30;13.00;;;;;;;10.84;81.44;99485.72;5091786;28;20034;-72
2022/10/28 04:38:55;;;;;;;22.10;12.90;;;;;;;10.85;81.05;99472.81;5091724;28;20107;-71
2022/10/28 04:41:20;;;;;;;21.92;12.65;;;;;;;10.86;81.06;99467.06;5091415;28;20016;-72
2022/10/28 04:43:45;;;;;;;19.15;12.40;;;;;;;10.87;81.13;99473.34;5072533;28;20478;-72
2022/10/28 04:46:11;;;;;;;20.00;13.63;;;;;;;10.87;80.56;99460.47;5091468;28;20101;-72
2022/10/28 04:48:36;;;;;;;21.52;13.07;;;;;;;10.87;80.57;99448.66;5091274;28;20488;-72
2022/10/28 04:51:01;;;;;;;21.40;12.82;;;;;;;10.85;81.23;99448.09;5091002;28;20440;-72
2022/10/28 04:53:27;;;;;;;20.23;12.57;;;;;;;10.84;80.40;99450.03;5090819;28;20032;-72
2022/10/28 04:55:59;;;;;;;22.95;14.65;;;;;;;10.85;80.71;99448.09;5091416;28;20032;-72
2022/10/28 04:58:25;;;;;;;28.17;18.15;;;;;;;10.83;80.50;99442.91;5091486;28;20078;-72
2022/10/28 05:00:51;;;;;;;29.58;19.52;;;;;;;10.81;80.69;99444.25;5072899;28;20024;-72
2022/10/28 05:03:16;;;;;;;22.35;15.50;;;;;;;10.79;80.45;99435.50;5090541;28;20097;-72
2022/10/28 05:05:41;;;;;;;25.35;16.05;;;;;;;10.78;80.66;99440.16;5090773;28;20047;-72
2022/10/28 05:08:07;;;;;;;23.85;14.60;;;;;;;10.77;80.58;99438.50;5091015;28;20042;-72
2022/10/28 05:10:32;;;;;;;24.63;14.93;;;;;;;10.77;80.94;99437.69;5090792;28;20098;-72
2022/10/28 05:12:58;;;;;;;33.42;18.02;;;;;;;10.74;80.26;99449.22;5090597;28;20519;-72
2022/10/28 05:15:25;;;;;;;31.63;17.65;;;;;;;10.70;80.43;99449.75;5090507;28;20032;-72
2022/10/28 05:17:51;;;;;;;32.42;17.98;;;;;;;10.67;80.39;99452.22;5072553;28;20051;-72
2022/10/28 05:20:18;;;;;;;23.17;14.93;;;;;;;10.64;80.20;99450.00;5078728;28;20117;-72
2022/10/28 05:22:52;;;;;;;23.95;15.30;;;;;;;10.62;81.15;99446.72;5070469;28;20074;-72
2022/10/28 05:25:18;;;;;;;26.15;15.48;;;;;;;10.61;80.68;99451.38;5069996;28;20020;-72
2022/10/28 05:27:43;;;;;;;21.02;14.18;;;;;;;10.60;80.95;99438.75;5070199;28;20112;-72
2022/10/28 05:30:09;;;;;;;24.27;14.10;;;;;;;10.61;81.32;99440.41;5090325;28;20490;-72
2022/10/28 05:32:35;;;;;;;24.33;15.93;;;;;;;10.59;81.31;99442.59;5090250;28;20048;-71
2022/10/28 05:35:00;;;;;;;22.75;15.00;;;;;;;10.61;81.06;99439.56;5090462;28;20455;-72
2022/10/28 05:37:26;;;;;;;19.88;13.65;;;;;;;10.61;80.69;99448.66;5090745;28;20032;-72
2022/10/28 05:39:51;;;;;;;19.35;12.98;;;;;;;10.61;80.68;99445.91;5090862;28;20367;-72
2022/10/28 05:42:16;;;;;;;20.70;12.75;;;;;;;10.64;80.82;99450.84;5090425;28;20072;-72
2022/10/28 05:44:42;;;;;;;16.42;11.40;;;;;;;10.66;80.47;99447.81;5090315;28;20028;-72
2022/10/28 05:47:07;;;;;;;16.45;11.98;;;;;;;10.69;80.97;99455.50;5072781;28;20023;-71
2022/10/28 05:49:32;;;;;;;18.52;12.23;;;;;;;10.71;80.94;99445.09;5090943;28;20043;-72
2022/10/28 05:51:58;;;;;;;18.60;11.43;;;;;;;10.73;80.99;99448.38;5090747;28;20363;-71
2022/10/28 05:54:23;;;;;;;14.98;11.10;;;;;;;10.74;81.57;99452.78;5090493;28;20493;-71
2022/10/28 05:56:49;;;;;;;16.27;11.05;;;;;;;10.78;81.57;99451.13;5090591;28;20040;-72
2022/10/28 05:59:14;;;;;;;15.27;10.40;;;;;;;10.82;81.66;99448.66;5090654;28;20032;-71
2022/10/28 06:01:40;;;;;;;15.85;11.38;;;;;;;10.83;81.39;99448.41;5072555;28;20681;-71
2022/10/28 06:04:05;;;;;;;16.25;11.68;;;;;;;10.86;81.26;99445.09;5090478;28;20067;-72
2022/10/28 06:06:31;;;;;;;17.52;10.88;;;;;;;10.89;80.96;99446.47;5090617;28;20047;-73
2022/10/28 06:08:57;;;;;;;16.77;11.07;;;;;;;10.90;81.36;99439.88;5072187;28;20154;-72
2022/10/28 06:11:22;;;;;;;16.27;10.57;;;;;;;10.93;81.68;99444.00;5089946;28;20114;-72
2022/10/28 06:13:47;;;;;;;13.65;9.50;;;;;;;10.96;81.21;99443.47;5089573;28;20031;-72
2022/10/28 06:16:13;;;;;;;13.10;9.45;;;;;;;10.99;81.93;99451.97;5085903;28;20056;-72
2022/10/28 06:18:38;;;;;;;13.80;9.45;;;;;;;11.05;82.18;99451.97;5043042;28;20035;-71
2022/10/28 06:21:04;;;;;;;14.88;9.32;;;;;;;11.07;82.02;99455.25;5071845;28;20115;-72
2022/10/28 06:23:29;;;;;;;14.10;9.55;;;;;;;11.10;81.71;99441.78;5068145;28;20025;-72
2022/10/28 06:25:56;;;;;;;14.30;9.30;;;;;;;11.15;82.18;99450.03;5072762;28;20111;-72
2022/10/28 06:28:21;;;;;;;13.80;8.52;;;;;;;11.20;82.20;99451.97;5078170;28;20077;-71
2022/10/28 06:30:47;;;;;;;12.20;8.68;;;;;;;11.23;82.23;99450.59;5071635;28;20037;-70
2022/10/28 06:33:12;;;;;;;14.10;8.77;;;;;;;11.26;81.75;99450.84;5077873;28;20112;-70
2022/10/28 06:35:38;;;;;;;14.73;9.23;;;;;;;11.28;82.47;99459.63;5079730;28;20486;-70
2022/10/28 06:38:03;;;;;;;14.90;10.23;;;;;;;11.32;82.61;99460.72;5076619;28;20375;-71
2022/10/28 06:40:29;;;;;;;12.38;9.27;;;;;;;11.35;81.75;99455.78;5050197;28;20044;-71
2022/10/28 06:42:57;;;;;;;13.55;8.65;;;;;;;11.40;82.51;99456.63;5070150;28;20461;-70
2022/10/28 06:45:23;;;;;;;13.98;9.00;;;;;;;11.44;82.34;99463.16;5071460;28;20036;-70
2022/10/28 06:47:48;;;;;;;14.15;9.07;;;;;;;11.47;81.92;99468.13;5071442;28;20031;-70
2022/10/28 06:50:14;;;;;;;14.88;9.52;;;;;;;11.52;82.02;99467.31;5068368;28;20032;-70
2022/10/28 06:52:39;;;;;;;13.73;8.95;;;;;;;11.55;82.30;99469.50;5067029;28;20579;-71
2022/10/28 06:55:05;;;;;;;12.40;7.90;;;;;;;11.59;82.25;99476.09;5068494;28;20111;-73
2022/10/28 06:57:30;;;;;;;12.38;8.02;;;;;;;11.64;81.94;99477.16;5072095;28;20039;-73
2022/10/28 06:59:55;;;;;;;11.98;8.60;;;;;;;11.68;82.09;99478.25;5074950;28;20181;-72
2022/10/28 07:02:21;;;;;;;14.07;8.63;;;;;;;11.73;81.94;99489.22;5057904;28;20060;-70
2022/10/28 07:04:46;;;;;;;12.07;8.63;;;;;;;11.76;81.98;99488.66;5072021;28;20043;-70
2022/10/28 07:07:12;;;;;;;13.30;8.57;;;;;;;11.79;81.59;99485.38;5079152;28;20028;-71
2022/10/28 07:09:38;;;;;;;13.43;9.35;;;;;;;11.84;82.09;99484.50;5071315;28;20523;-70
2022/10/28 07:12:05;;;;;;;14.02;8.15;;;;;;;11.86;82.22;99483.16;5078056;28;20027;-70
2022/10/28 07:14:33;;;;;;;14.15;8.65;;;;;;;11.89;81.75;99481.75;5074740;28;20078;-71
2022/10/28 07:16:59;;;;;;;16.08;10.10;;;;;;;11.93;81.96;99482.03;5051942;28;20017;-72
2022/10/28 07:19:24;;;;;;;13.65;9.70;;;;;;;11.98;81.67;99480.06;5052299;28;20047;-71
2022/10/28 07:21:50;;;;;;;12.73;9.43;;;;;;;11.99;81.44;99490.00;5067262;28;20078;-71
2022/10/28 07:24:15;;;;;;;15.82;8.90;;;;;;;12.02;81.69;99489.44;5052316;28;20028;-72
2022/10/28 07:26:42;;;;;;;14.43;8.77;;;;;;;12.06;81.29;99484.19;5071118;28;20032;-73
2022/10/28 07:29:07;;;;;;;14.35;9.75;;;;;;;12.10;81.58;99495.47;5080635;28;20024;-72
2022/10/28 07:31:33;;;;;;;15.40;9.30;;;;;;;12.09;81.42;99483.63;5050825;28;20031;-74
2022/10/28 07:33:58;;;;;;;14.68;8.98;;;;;;;12.14;80.99;99482.81;5069383;28;20024;-75
2022/10/28 07:36:24;;;;;;;13.15;9.18;;;;;;;12.16;81.52;99480.59;5080873;28;20026;-71
2022/10/28 07:38:50;;;;;;;17.02;9.77;;;;;;;12.19;81.59;99478.09;5067740;28;20496;-76
2022/10/28 07:41:17;;;;;;;14.82;9.48;;;;;;;12.26;81.51;99477.78;5078205;28;20510;-75
2022/10/28 07:43:43;;;;;;;14.00;9.07;;;;;;;12.31;81.39;99490.72;5072865;28;20111;-76
2022/10/28 07:46:08;;;;;;;13.65;9.13;;;;;;;12.34;81.36;99485.44;5071127;28;20111;-76
2022/10/28 07:48:35;;;;;;;14.05;8.75;;;;;;;12.40;81.35;99494.53;5066139;28;20027;-74
2022/10/28 07:51:03;;;;;;;14.23;8.85;;;;;;;12.46;81.09;99490.63;5071633;28;20598;-75
2022/10/28 07:53:30;;;;;;;13.02;8.63;;;;;;;12.50;81.10;99493.63;5055639;28;20040;-77
2022/10/28 07:56:00;;;;;;;14.90;10.52;;;;;;;12.52;81.24;99483.16;5075451;28;20025;-78
2022/10/28 07:58:27;;;;;;;17.85;11.70;;;;;;;12.58;80.66;99489.44;5074371;28;20020;-77
2022/10/28 08:00:52;;;;;;;14.48;10.00;;;;;;;12.59;80.38;99489.19;5090641;28;20107;-74
2022/10/28 08:03:18;;;;;;;14.43;9.25;;;;;;;12.62;80.58;99493.28;5089925;28;20189;-73
2022/10/28 08:05:44;;;;;;;15.38;9.30;;;;;;;12.65;80.28;99487.22;5061306;28;20039;-75
2022/10/28 08:08:10;;;;;;;19.30;10.63;;;;;;;12.66;80.66;99478.66;5055214;28;20024;-74
2022/10/28 08:10:35;;;;;;;14.32;9.50;;;;;;;12.70;80.48;99476.19;5066861;28;20143;-73
2022/10/28 08:13:01;;;;;;;13.88;9.32;;;;;;;12.72;80.66;99479.47;5069481;28;20028;-73
2022/10/28 08:15:27;;;;;;;15.23;9.63;;;;;;;12.74;80.36;99488.25;5051897;28;20028;-73
2022/10/28 08:17:53;;;;;;;15.23;9.82;;;;;;;12.75;79.89;99486.31;5069796;28;20016;-73
2022/10/28 08:20:19;;;;;;;16.90;11.50;;;;;;;12.73;80.55;99491.28;5069548;28;20032;-74
2022/10/28 08:22:45;;;;;;;13.45;10.30;;;;;;;12.73;79.93;99488.53;5061001;28;20470;-74
2022/10/28 08:25:10;;;;;;;17.42;11.80;;;;;;;12.69;79.69;99485.53;5073283;28;20690;-73
2022/10/28 08:27:36;;;;;;;17.05;11.02;;;;;;;12.67;79.87;99479.50;5066093;28;20029;-72
2022/10/28 08:30:01;;;;;;;16.10;11.18;;;;;;;12.68;79.79;99470.13;5074803;28;20062;-73
2022/10/28 08:32:26;;;;;;;16.30;11.20;;;;;;;12.66;79.87;99480.59;5080739;28;20044;-77
2022/10/28 08:34:52;;;;;;;17.88;11.15;;;;;;;12.69;79.91;99481.94;5089605;28;20423;-75
2022/10/28 08:37:17;;;;;;;18.05;11.50;;;;;;;12.73;80.10;99477.53;5082403;28;20127;-77
2022/10/28 08:39:43;;;;;;;18.63;12.05;;;;;;;12.72;79.91;99473.13;5066539;28;20036;-79
2022/10/28 08:42:21;;;;;;;19.02;11.02;;;;;;;12.71;79.82;99474.22;5068958;28;20037;-77
2022/10/28 08:44:59;;;;;;;17.05;11.57;;;;;;;12.73;79.96;99475.59;5067803;28;20456;-78
2022/10/28 08:47:43;;;;;;;17.45;11.95;;;;;;;12.76;80.07;99476.97;5069485;28;20074;-77
2022/10/28 08:50:17;;;;;;;16.88;11.85;;;;;;;12.79;79.85;99477.22;5070111;28;20040;-77
2022/10/28 08:53:00;;;;;;;16.60;10.68;;;;;;;12.81;80.22;99476.94;5069298;28;20115;-76
2022/10/28 08:55:45;;;;;;;18.95;9.77;;;;;;;12.87;80.25;99480.44;5069370;28;20025;-77
2022/10/28 08:58:19;;;;;;;15.02;9.80;;;;;;;12.91;80.44;99473.28;5070023;28;20074;-76
2022/10/28 09:00:56;;;;;;;18.45;9.55;;;;;;;12.99;80.11;99477.34;5058248;28;20024;-80
2022/10/28 09:03:32;;;;;;;19.15;11.18;;;;;;;13.05;80.16;99474.28;5063297;28;20024;-74
2022/10/28 09:06:03;;;;;;;15.70;9.50;;;;;;;13.09;79.90;99466.25;5069018;28;20532;-76
2022/10/28 09:08:32;;;;;;;14.93;9.63;;;;;;;13.10;79.68;99474.22;5069672;28;20024;-76
2022/10/28 09:11:00;;;;;;;13.38;8.88;;;;;;;13.14;79.70;99481.91;5071769;28;20107;-76
2022/10/28 09:13:59;;;;;;;14.98;9.10;;;;;;;13.16;79.71;99472.25;5067219;28;20117;-77
2022/10/28 09:16:34;;;;;;;13.60;8.35;;;;;;;13.17;79.29;99479.41;5070183;28;20542;-75
2022/10/28 09:19:50;;;;;;;13.00;7.93;;;;;;;13.17;79.27;99484.09;5067907;28;20024;-75
2022/10/28 09:22:30;;;;;;;13.82;8.82;;;;;;;13.15;78.80;99475.31;5054788;28;20042;-77
2022/10/28 09:25:00;;;;;;;13.00;8.27;;;;;;;13.14;78.88;99473.66;5089220;28;20489;-76
2022/10/28 09:27:50;;;;;;;13.95;8.77;;;;;;;13.12;78.98;99465.66;5071520;28;20235;-76
2022/10/28 09:30:34;;;;;;;;;;;;;;;13.18;78.91;99464.50;5071647;28;20031;-76
2022/10/28 09:33:27;;;;;;;12.80;9.48;;;;;;;13.19;78.89;99460.66;5066344;28;19917;-75
2022/10/28 09:35:53;;;;;;;12.90;8.20;;;;;;;13.23;78.61;99458.97;5070977;28;20024;-76
2022/10/28 09:38:26;;;;;;;17.83;8.57;;;;;;;13.28;78.19;99454.53;5045694;28;20028;-76
2022/10/28 09:41:00;;;;;;;11.50;7.82;;;;;;;13.27;78.42;99464.69;5066281;28;20510;-78
2022/10/28 09:43:32;;;;;;;13.10;8.50;;;;;;;13.31;78.13;99465.78;5069339;28;20021;-76
2022/10/28 09:46:05;;;;;;;14.32;8.30;;;;;;;13.35;78.44;99466.84;5087685;28;20440;-78
2022/10/28 09:48:35;;;;;;;11.35;7.90;;;;;;;13.41;78.47;99462.16;5077276;28;20033;-77
2022/10/28 09:51:01;;;;;;;10.45;7.35;;;;;;;13.41;78.18;99456.63;5070655;28;20043;-76
2022/10/28 09:53:47;;;;;;;11.10;7.35;;;;;;;13.45;78.01;99460.44;5065676;28;20033;-76
2022/10/28 09:56:14;;;;;;;11.95;7.65;;;;;;;13.47;77.94;99457.41;5076754;28;20115;-74
2022/10/28 09:58:45;;;;;;;10.05;6.97;;;;;;;13.53;78.10;99459.00;5090103;28;20409;-76
2022/10/28 10:01:11;;;;;;;8.50;6.50;;;;;;;13.60;77.85;99459.47;5070269;28;20041;-75
2022/10/28 10:03:38;;;;;;;9.68;6.80;;;;;;;13.63;77.50;99467.16;5084289;28;20036;-75
2022/10/28 10:06:11;;;;;;;9.13;6.50;;;;;;;13.64;77.96;99463.28;5087811;28;20043;-75
2022/10/28 10:08:39;;;;;;;9.68;6.20;;;;;;;13.67;77.59;99459.94;5081049;28;20032;-75
2022/10/28 10:11:12;;;;;;;9.88;7.38;;;;;;;13.72;77.61;99458.22;5070128;28;20028;-75
2022/10/28 10:13:42;;;;;;;9.65;6.63;;;;;;;13.73;77.69;99455.19;5085918;28;20100;-75
2022/10/28 10:16:23;;;;;;;12.50;7.35;;;;;;;13.77;77.25;99447.16;5076736;28;20655;-75
2022/10/28 10:18:53;;;;;;;16.35;7.75;;;;;;;13.82;77.08;99460.88;5069703;28;20032;-75
2022/10/28 10:21:40;;;;;;;12.13;7.32;;;;;;;13.85;77.21;99463.06;5069301;28;20386;-75
2022/10/28 10:24:33;;;;;;;16.52;10.90;;;;;;;13.91;77.08;99464.66;5068727;28;20024;-74
2022/10/28 10:27:12;;;;;;;10.43;6.78;;;;;;;13.96;76.83;99466.50;5069277;28;20111;-74
2022/10/28 10:29:44;;;;;;;11.27;6.47;;;;;;;14.05;76.72;99475.78;5088340;28;20048;-74
2022/10/28 10:32:17;;;;;;;8.00;5.78;;;;;;;14.12;76.84;99479.00;5080600;28;20401;-74
2022/10/28 10:34:48;;;;;;;8.57;5.65;;;;;;;14.18;76.02;99473.44;5069227;28;20131;-74
2022/10/28 10:37:21;;;;;;;9.82;6.47;;;;;;;14.18;76.13;99470.66;5051547;28;20032;-74
2022/10/28 10:39:59;;;;;;;8.20;5.20;;;;;;;14.19;76.06;99472.31;5051369;28;20504;-73
2022/10/28 10:42:26;;;;;;;7.35;5.68;;;;;;;14.19;75.69;99473.13;5068647;28;20394;-76
2022/10/28 10:45:01;;;;;;;7.13;5.50;;;;;;;14.21;76.20;99470.88;5069220;28;20445;-75
2022/10/28 10:47:26;;;;;;;7.72;5.47;;;;;;;14.30;75.94;99468.28;5069486;28;20041;-74
2022/10/28 10:50:14;;;;;;;9.88;5.30;;;;;;;14.39;75.55;99455.47;5072652;28;20100;-72
2022/10/28 10:52:47;;;;;;;10.15;5.70;;;;;;;14.49;75.94;99457.25;5070510;28;20036;-74
2022/10/28 10:55:28;;;;;;;11.30;7.05;;;;;;;14.51;75.51;99457.78;5088988;28;20588;-74
2022/10/28 10:57:54;;;;;;;12.30;7.85;;;;;;;14.58;75.57;99458.25;5088873;28;20389;-74
2022/10/28 11:00:22;;;;;;;6.68;5.00;;;;;;;14.61;75.49;99465.13;5089097;28;20032;-74
2022/10/28 11:02:47;;;;;;;7.32;5.15;;;;;;;14.63;74.40;99456.53;5088557;28;20036;-74
2022/10/28 11:05:20;;;;;;;7.70;5.32;;;;;;;14.58;74.62;99463.75;5054621;28;20028;-73
2022/10/28 11:07:49;;;;;;;12.65;6.90;;;;;;;14.58;74.90;99468.47;5067003;28;20104;-74
2022/10/28 11:10:26;;;;;;;9.15;5.90;;;;;;;14.54;74.30;99457.19;5079894;28;20015;-74
2022/10/28 11:12:57;;;;;;;10.73;5.80;;;;;;;14.55;74.25;99463.53;5080437;28;20135;-74
2022/10/28 11:15:28;;;;;;;10.68;6.10;;;;;;;14.55;74.64;99456.06;5071593;28;20505;-73
2022/10/28 11:17:59;;;;;;;10.68;6.20;;;;;;;14.61;74.99;99454.06;5084163;28;20089;-73
2022/10/28 11:20:29;;;;;;;10.52;6.30;;;;;;;14.69;74.80;99452.59;5091551;28;20481;-73
2022/10/28 11:23:31;;;;;;;7.97;5.53;;;;;;;14.74;74.59;99447.81;5091027;28;20024;-73
2022/10/28 11:26:05;;;;;;;11.45;6.30;;;;;;;14.80;74.35;99442.22;5078295;28;20020;-73
2022/10/28 11:28:49;;;;;;;9.90;6.00;;;;;;;14.82;73.97;99435.28;5080431;28;20028;-74
2022/10/28 11:31:14;;;;;;;10.25;6.10;;;;;;;14.79;73.46;99433.13;5090912;28;20478;-73
2022/10/28 11:34:03;;;;;;;8.70;6.28;;;;;;;14.78;73.86;99434.25;5090264;28;20123;-73